sensor_id;sensor_type;location;lat;lon;timestamp;P1;durP1;ratioP1;P2;durP2;ratioP2
27424;SDS011;15244;49.088;11.886;2023-02-15T00:03:11;21.50;;;12.48;;
27424;SDS011;15244;49.088;11.886;2023-02-15T00:08:13;20.63;;;12.77;;
27424;SDS011;15244;49.088;11.886;2023-02-15T00:13:17;22.35;;;13.02;;
27424;SDS011;15244;49.088;11.886;2023-02-15T00:18:23;22.85;;;12.98;;
27424;SDS011;15244;49.088;11.886;2023-02-15T00:23:26;24.23;;;13.43;;
27424;SDS011;15244;49.088;11.886;2023-02-15T00:28:27;19.30;;;11.43;;
27424;SDS011;15244;49.088;11.886;2023-02-15T00:33:29;22.98;;;13.30;;
27424;SDS011;15244;49.088;11.886;2023-02-15T00:38:31;22.17;;;13.65;;
27424;SDS011;15244;49.088;11.886;2023-02-15T00:43:33;19.25;;;11.93;;
27424;SDS011;15244;49.088;11.886;2023-02-15T00:48:35;23.92;;;13.88;;
27424;SDS011;15244;49.088;11.886;2023-02-15T00:53:37;24.38;;;13.70;;
27424;SDS011;15244;49.088;11.886;2023-02-15T00:58:39;19.42;;;12.40;;
27424;SDS011;15244;49.088;11.886;2023-02-15T01:03:43;18.77;;;12.07;;
27424;SDS011;15244;49.088;11.886;2023-02-15T01:08:45;18.98;;;12.23;;
27424;SDS011;15244;49.088;11.886;2023-02-15T01:13:47;17.85;;;11.48;;
27424;SDS011;15244;49.088;11.886;2023-02-15T01:18:54;18.73;;;12.27;;
27424;SDS011;15244;49.088;11.886;2023-02-15T01:23:56;16.20;;;10.98;;
27424;SDS011;15244;49.088;11.886;2023-02-15T01:28:58;17.65;;;11.95;;
27424;SDS011;15244;49.088;11.886;2023-02-15T01:33:59;19.70;;;12.80;;
27424;SDS011;15244;49.088;11.886;2023-02-15T01:39:01;19.48;;;12.05;;
27424;SDS011;15244;49.088;11.886;2023-02-15T01:44:40;21.48;;;13.30;;
27424;SDS011;15244;49.088;11.886;2023-02-15T01:49:48;21.35;;;13.02;;
27424;SDS011;15244;49.088;11.886;2023-02-15T01:54:59;17.92;;;11.80;;
27424;SDS011;15244;49.088;11.886;2023-02-15T02:00:04;18.70;;;12.07;;
27424;SDS011;15244;49.088;11.886;2023-02-15T02:05:12;20.63;;;11.88;;
27424;SDS011;15244;49.088;11.886;2023-02-15T02:10:16;22.60;;;13.48;;
27424;SDS011;15244;49.088;11.886;2023-02-15T02:15:21;17.65;;;12.15;;
27424;SDS011;15244;49.088;11.886;2023-02-15T02:20:30;18.58;;;12.25;;
27424;SDS011;15244;49.088;11.886;2023-02-15T02:26:00;16.88;;;11.43;;
27424;SDS011;15244;49.088;11.886;2023-02-15T02:31:27;18.38;;;12.07;;
27424;SDS011;15244;49.088;11.886;2023-02-15T02:42:01;17.90;;;10.88;;
27424;SDS011;15244;49.088;11.886;2023-02-15T02:47:13;16.15;;;10.60;;
27424;SDS011;15244;49.088;11.886;2023-02-15T02:52:36;20.77;;;12.18;;
27424;SDS011;15244;49.088;11.886;2023-02-15T02:57:52;21.48;;;12.55;;
27424;SDS011;15244;49.088;11.886;2023-02-15T03:03:05;22.65;;;12.75;;
27424;SDS011;15244;49.088;11.886;2023-02-15T03:08:12;23.23;;;13.07;;
27424;SDS011;15244;49.088;11.886;2023-02-15T03:13:23;22.42;;;12.75;;
27424;SDS011;15244;49.088;11.886;2023-02-15T03:18:26;19.58;;;10.75;;
27424;SDS011;15244;49.088;11.886;2023-02-15T03:23:34;20.85;;;12.15;;
27424;SDS011;15244;49.088;11.886;2023-02-15T03:28:40;20.05;;;11.60;;
27424;SDS011;15244;49.088;11.886;2023-02-15T03:34:07;20.92;;;11.80;;
27424;SDS011;15244;49.088;11.886;2023-02-15T03:44:43;20.50;;;11.68;;
27424;SDS011;15244;49.088;11.886;2023-02-15T03:49:54;22.27;;;12.13;;
27424;SDS011;15244;49.088;11.886;2023-02-15T03:55:00;17.67;;;10.38;;
27424;SDS011;15244;49.088;11.886;2023-02-15T04:00:11;19.77;;;11.13;;
27424;SDS011;15244;49.088;11.886;2023-02-15T04:05:54;21.55;;;12.02;;
27424;SDS011;15244;49.088;11.886;2023-02-15T04:10:56;20.17;;;11.23;;
27424;SDS011;15244;49.088;11.886;2023-02-15T04:15:59;24.17;;;12.27;;
27424;SDS011;15244;49.088;11.886;2023-02-15T04:21:05;22.60;;;12.15;;
27424;SDS011;15244;49.088;11.886;2023-02-15T04:26:26;23.50;;;12.70;;
27424;SDS011;15244;49.088;11.886;2023-02-15T04:31:27;24.48;;;12.38;;
27424;SDS011;15244;49.088;11.886;2023-02-15T04:36:29;23.90;;;12.93;;
27424;SDS011;15244;49.088;11.886;2023-02-15T04:41:31;22.85;;;12.13;;
27424;SDS011;15244;49.088;11.886;2023-02-15T04:46:34;24.80;;;13.30;;
27424;SDS011;15244;49.088;11.886;2023-02-15T04:51:35;24.35;;;13.18;;
27424;SDS011;15244;49.088;11.886;2023-02-15T04:56:37;22.45;;;13.00;;
27424;SDS011;15244;49.088;11.886;2023-02-15T05:01:40;22.30;;;12.00;;
27424;SDS011;15244;49.088;11.886;2023-02-15T05:06:42;25.38;;;13.07;;
27424;SDS011;15244;49.088;11.886;2023-02-15T05:11:43;17.38;;;11.27;;
27424;SDS011;15244;49.088;11.886;2023-02-15T05:16:45;17.85;;;11.23;;
27424;SDS011;15244;49.088;11.886;2023-02-15T05:21:46;19.65;;;11.50;;
27424;SDS011;15244;49.088;11.886;2023-02-15T05:26:48;20.17;;;11.32;;
27424;SDS011;15244;49.088;11.886;2023-02-15T05:32:08;19.42;;;11.15;;
27424;SDS011;15244;49.088;11.886;2023-02-15T05:37:10;20.08;;;11.15;;
27424;SDS011;15244;49.088;11.886;2023-02-15T05:42:11;18.98;;;10.85;;
27424;SDS011;15244;49.088;11.886;2023-02-15T05:47:13;19.42;;;12.00;;
27424;SDS011;15244;49.088;11.886;2023-02-15T05:52:14;25.38;;;13.23;;
27424;SDS011;15244;49.088;11.886;2023-02-15T05:57:16;21.73;;;12.60;;
27424;SDS011;15244;49.088;11.886;2023-02-15T06:02:17;21.92;;;11.93;;
27424;SDS011;15244;49.088;11.886;2023-02-15T06:07:19;22.55;;;12.20;;
27424;SDS011;15244;49.088;11.886;2023-02-15T06:12:21;25.98;;;13.15;;
27424;SDS011;15244;49.088;11.886;2023-02-15T06:17:23;20.38;;;11.00;;
27424;SDS011;15244;49.088;11.886;2023-02-15T06:22:24;20.88;;;11.82;;
27424;SDS011;15244;49.088;11.886;2023-02-15T06:27:26;19.23;;;11.00;;
27424;SDS011;15244;49.088;11.886;2023-02-15T06:32:27;20.38;;;11.63;;
27424;SDS011;15244;49.088;11.886;2023-02-15T06:37:29;21.38;;;12.00;;
27424;SDS011;15244;49.088;11.886;2023-02-15T06:42:30;19.73;;;11.95;;
27424;SDS011;15244;49.088;11.886;2023-02-15T06:47:32;19.20;;;11.57;;
27424;SDS011;15244;49.088;11.886;2023-02-15T06:52:33;18.77;;;10.98;;
27424;SDS011;15244;49.088;11.886;2023-02-15T06:57:35;20.02;;;11.40;;
27424;SDS011;15244;49.088;11.886;2023-02-15T07:02:36;16.33;;;10.55;;
27424;SDS011;15244;49.088;11.886;2023-02-15T07:07:38;19.95;;;11.20;;
27424;SDS011;15244;49.088;11.886;2023-02-15T07:12:40;21.33;;;13.25;;
27424;SDS011;15244;49.088;11.886;2023-02-15T07:17:45;19.90;;;11.18;;
27424;SDS011;15244;49.088;11.886;2023-02-15T07:22:48;18.10;;;11.85;;
27424;SDS011;15244;49.088;11.886;2023-02-15T07:27:55;18.92;;;11.38;;
27424;SDS011;15244;49.088;11.886;2023-02-15T07:32:59;17.08;;;10.55;;
27424;SDS011;15244;49.088;11.886;2023-02-15T07:38:19;16.13;;;10.57;;
27424;SDS011;15244;49.088;11.886;2023-02-15T07:43:21;17.70;;;10.85;;
27424;SDS011;15244;49.088;11.886;2023-02-15T07:48:23;20.55;;;13.18;;
27424;SDS011;15244;49.088;11.886;2023-02-15T07:53:25;19.42;;;12.00;;
27424;SDS011;15244;49.088;11.886;2023-02-15T07:58:26;19.30;;;12.38;;
27424;SDS011;15244;49.088;11.886;2023-02-15T08:03:48;19.60;;;11.48;;
27424;SDS011;15244;49.088;11.886;2023-02-15T08:08:50;21.63;;;12.35;;
27424;SDS011;15244;49.088;11.886;2023-02-15T08:18:57;21.13;;;13.40;;
27424;SDS011;15244;49.088;11.886;2023-02-15T08:24:01;20.42;;;11.82;;
27424;SDS011;15244;49.088;11.886;2023-02-15T08:29:04;19.90;;;12.40;;
27424;SDS011;15244;49.088;11.886;2023-02-15T08:34:06;20.83;;;13.20;;
27424;SDS011;15244;49.088;11.886;2023-02-15T08:39:08;21.63;;;14.25;;
27424;SDS011;15244;49.088;11.886;2023-02-15T08:44:10;16.90;;;11.63;;
27424;SDS011;15244;49.088;11.886;2023-02-15T08:49:13;17.23;;;10.55;;
27424;SDS011;15244;49.088;11.886;2023-02-15T08:54:19;19.02;;;11.95;;
27424;SDS011;15244;49.088;11.886;2023-02-15T08:59:22;17.98;;;12.05;;
27424;SDS011;15244;49.088;11.886;2023-02-15T09:04:24;16.08;;;11.48;;
27424;SDS011;15244;49.088;11.886;2023-02-15T09:09:26;15.05;;;10.43;;
27424;SDS011;15244;49.088;11.886;2023-02-15T09:14:27;12.63;;;9.15;;
27424;SDS011;15244;49.088;11.886;2023-02-15T09:19:29;14.07;;;10.60;;
27424;SDS011;15244;49.088;11.886;2023-02-15T09:24:31;14.60;;;11.25;;
27424;SDS011;15244;49.088;11.886;2023-02-15T09:29:34;13.68;;;10.25;;
27424;SDS011;15244;49.088;11.886;2023-02-15T09:34:36;15.55;;;11.45;;
27424;SDS011;15244;49.088;11.886;2023-02-15T09:39:38;17.85;;;12.18;;
27424;SDS011;15244;49.088;11.886;2023-02-15T10:00:41;18.00;;;12.25;;
27424;SDS011;15244;49.088;11.886;2023-02-15T10:05:55;18.60;;;13.82;;
27424;SDS011;15244;49.088;11.886;2023-02-15T10:16:54;21.52;;;13.73;;
27424;SDS011;15244;49.088;11.886;2023-02-15T10:27:48;17.33;;;11.85;;
27424;SDS011;15244;49.088;11.886;2023-02-15T10:33:01;18.33;;;12.43;;
27424;SDS011;15244;49.088;11.886;2023-02-15T10:49:10;17.15;;;11.48;;
27424;SDS011;15244;49.088;11.886;2023-02-15T11:10:51;24.00;;;15.77;;
27424;SDS011;15244;49.088;11.886;2023-02-15T11:15:59;22.53;;;14.90;;
27424;SDS011;15244;49.088;11.886;2023-02-15T11:21:07;22.98;;;14.48;;
27424;SDS011;15244;49.088;11.886;2023-02-15T11:31:43;23.90;;;15.32;;
27424;SDS011;15244;49.088;11.886;2023-02-15T11:36:48;24.15;;;14.73;;
27424;SDS011;15244;49.088;11.886;2023-02-15T11:41:52;23.83;;;14.90;;
27424;SDS011;15244;49.088;11.886;2023-02-15T11:46:56;20.10;;;13.50;;
27424;SDS011;15244;49.088;11.886;2023-02-15T11:51:58;32.60;;;18.20;;
27424;SDS011;15244;49.088;11.886;2023-02-15T11:57:11;23.95;;;15.93;;
27424;SDS011;15244;49.088;11.886;2023-02-15T12:02:20;25.10;;;16.25;;
27424;SDS011;15244;49.088;11.886;2023-02-15T12:07:24;30.92;;;17.73;;
27424;SDS011;15244;49.088;11.886;2023-02-15T12:12:30;26.05;;;17.73;;
27424;SDS011;15244;49.088;11.886;2023-02-15T12:17:35;25.27;;;16.67;;
27424;SDS011;15244;49.088;11.886;2023-02-15T12:22:45;27.65;;;17.70;;
27424;SDS011;15244;49.088;11.886;2023-02-15T12:27:50;31.45;;;18.13;;
27424;SDS011;15244;49.088;11.886;2023-02-15T12:32:59;31.05;;;18.75;;
27424;SDS011;15244;49.088;11.886;2023-02-15T12:43:26;35.33;;;20.48;;
27424;SDS011;15244;49.088;11.886;2023-02-15T12:53:41;30.17;;;18.95;;
27424;SDS011;15244;49.088;11.886;2023-02-15T12:58:45;31.27;;;19.65;;
27424;SDS011;15244;49.088;11.886;2023-02-15T13:03:58;28.42;;;18.17;;
27424;SDS011;15244;49.088;11.886;2023-02-15T13:09:13;23.03;;;14.67;;
27424;SDS011;15244;49.088;11.886;2023-02-15T13:14:19;32.42;;;19.27;;
27424;SDS011;15244;49.088;11.886;2023-02-15T13:19:37;29.23;;;18.95;;
27424;SDS011;15244;49.088;11.886;2023-02-15T13:24:44;32.55;;;21.52;;
27424;SDS011;15244;49.088;11.886;2023-02-15T13:29:50;30.70;;;19.63;;
27424;SDS011;15244;49.088;11.886;2023-02-15T13:34:56;30.33;;;18.58;;
27424;SDS011;15244;49.088;11.886;2023-02-15T13:51:17;28.17;;;18.25;;
27424;SDS011;15244;49.088;11.886;2023-02-15T14:07:10;32.05;;;19.77;;
27424;SDS011;15244;49.088;11.886;2023-02-15T14:23:16;39.72;;;25.85;;
27424;SDS011;15244;49.088;11.886;2023-02-15T14:28:21;52.28;;;36.05;;
27424;SDS011;15244;49.088;11.886;2023-02-15T14:33:35;33.00;;;21.77;;
27424;SDS011;15244;49.088;11.886;2023-02-15T14:43:56;29.45;;;18.23;;
27424;SDS011;15244;49.088;11.886;2023-02-15T14:49:12;31.17;;;18.83;;
27424;SDS011;15244;49.088;11.886;2023-02-15T14:59:21;32.60;;;19.55;;
27424;SDS011;15244;49.088;11.886;2023-02-15T15:04:26;28.52;;;18.00;;
27424;SDS011;15244;49.088;11.886;2023-02-15T15:09:31;28.75;;;17.73;;
27424;SDS011;15244;49.088;11.886;2023-02-15T15:14:38;27.42;;;17.40;;
27424;SDS011;15244;49.088;11.886;2023-02-15T15:30:01;32.30;;;20.02;;
27424;SDS011;15244;49.088;11.886;2023-02-15T15:35:05;32.22;;;20.40;;
27424;SDS011;15244;49.088;11.886;2023-02-15T15:46:04;31.75;;;20.05;;
27424;SDS011;15244;49.088;11.886;2023-02-15T15:51:18;28.77;;;18.02;;
27424;SDS011;15244;49.088;11.886;2023-02-15T15:56:26;28.23;;;17.42;;
27424;SDS011;15244;49.088;11.886;2023-02-15T16:01:35;29.92;;;17.67;;
27424;SDS011;15244;49.088;11.886;2023-02-15T16:06:41;30.10;;;19.00;;
27424;SDS011;15244;49.088;11.886;2023-02-15T16:11:43;37.50;;;19.52;;
27424;SDS011;15244;49.088;11.886;2023-02-15T16:16:50;31.15;;;18.88;;
27424;SDS011;15244;49.088;11.886;2023-02-15T16:21:55;32.83;;;20.05;;
27424;SDS011;15244;49.088;11.886;2023-02-15T16:27:06;30.08;;;19.30;;
27424;SDS011;15244;49.088;11.886;2023-02-15T16:32:16;34.22;;;19.05;;
27424;SDS011;15244;49.088;11.886;2023-02-15T16:37:22;30.92;;;18.40;;
27424;SDS011;15244;49.088;11.886;2023-02-15T16:42:27;30.88;;;18.17;;
27424;SDS011;15244;49.088;11.886;2023-02-15T16:47:29;33.05;;;19.92;;
27424;SDS011;15244;49.088;11.886;2023-02-15T16:52:32;33.28;;;20.63;;
27424;SDS011;15244;49.088;11.886;2023-02-15T16:57:36;31.73;;;18.13;;
27424;SDS011;15244;49.088;11.886;2023-02-15T17:02:39;31.08;;;19.08;;
27424;SDS011;15244;49.088;11.886;2023-02-15T17:13:26;29.92;;;18.33;;
27424;SDS011;15244;49.088;11.886;2023-02-15T17:18:29;33.03;;;20.15;;
27424;SDS011;15244;49.088;11.886;2023-02-15T17:23:33;33.88;;;20.55;;
27424;SDS011;15244;49.088;11.886;2023-02-15T17:28:49;32.70;;;19.75;;
27424;SDS011;15244;49.088;11.886;2023-02-15T17:33:52;40.97;;;23.00;;
27424;SDS011;15244;49.088;11.886;2023-02-15T17:43:57;34.92;;;19.88;;
27424;SDS011;15244;49.088;11.886;2023-02-15T17:48:59;43.92;;;23.13;;
27424;SDS011;15244;49.088;11.886;2023-02-15T17:54:01;35.53;;;20.80;;
27424;SDS011;15244;49.088;11.886;2023-02-15T17:59:22;43.38;;;23.73;;
27424;SDS011;15244;49.088;11.886;2023-02-15T18:04:24;39.05;;;21.63;;
27424;SDS011;15244;49.088;11.886;2023-02-15T18:09:44;30.90;;;18.77;;
27424;SDS011;15244;49.088;11.886;2023-02-15T18:15:04;40.33;;;21.83;;
27424;SDS011;15244;49.088;11.886;2023-02-15T18:20:16;41.03;;;22.70;;
27424;SDS011;15244;49.088;11.886;2023-02-15T18:25:21;42.40;;;24.80;;
27424;SDS011;15244;49.088;11.886;2023-02-15T18:30:25;40.38;;;23.35;;
27424;SDS011;15244;49.088;11.886;2023-02-15T18:35:29;38.90;;;21.88;;
27424;SDS011;15244;49.088;11.886;2023-02-15T18:40:32;38.95;;;22.00;;
27424;SDS011;15244;49.088;11.886;2023-02-15T18:45:34;36.60;;;22.27;;
27424;SDS011;15244;49.088;11.886;2023-02-15T18:50:37;35.90;;;21.20;;
27424;SDS011;15244;49.088;11.886;2023-02-15T18:55:39;36.63;;;21.48;;
27424;SDS011;15244;49.088;11.886;2023-02-15T19:00:41;39.67;;;23.02;;
27424;SDS011;15244;49.088;11.886;2023-02-15T19:05:44;37.92;;;21.88;;
27424;SDS011;15244;49.088;11.886;2023-02-15T19:10:47;40.75;;;22.38;;
27424;SDS011;15244;49.088;11.886;2023-02-15T19:15:48;46.45;;;24.00;;
27424;SDS011;15244;49.088;11.886;2023-02-15T19:20:50;49.05;;;26.20;;
27424;SDS011;15244;49.088;11.886;2023-02-15T19:25:52;40.47;;;22.67;;
27424;SDS011;15244;49.088;11.886;2023-02-15T19:30:54;38.28;;;22.40;;
27424;SDS011;15244;49.088;11.886;2023-02-15T19:35:56;41.95;;;22.20;;
27424;SDS011;15244;49.088;11.886;2023-02-15T19:40:59;37.10;;;21.30;;
27424;SDS011;15244;49.088;11.886;2023-02-15T19:46:04;45.22;;;26.15;;
27424;SDS011;15244;49.088;11.886;2023-02-15T19:51:07;39.65;;;25.95;;
27424;SDS011;15244;49.088;11.886;2023-02-15T19:56:27;41.88;;;23.83;;
27424;SDS011;15244;49.088;11.886;2023-02-15T20:01:29;46.40;;;30.65;;
27424;SDS011;15244;49.088;11.886;2023-02-15T20:06:31;40.47;;;22.75;;
27424;SDS011;15244;49.088;11.886;2023-02-15T20:11:32;37.97;;;21.75;;
27424;SDS011;15244;49.088;11.886;2023-02-15T20:16:34;40.15;;;22.42;;
27424;SDS011;15244;49.088;11.886;2023-02-15T20:21:35;42.45;;;24.35;;
27424;SDS011;15244;49.088;11.886;2023-02-15T20:26:37;46.60;;;24.77;;
27424;SDS011;15244;49.088;11.886;2023-02-15T20:31:39;40.45;;;22.95;;
27424;SDS011;15244;49.088;11.886;2023-02-15T20:36:41;43.25;;;23.85;;
27424;SDS011;15244;49.088;11.886;2023-02-15T20:41:43;46.08;;;23.98;;
27424;SDS011;15244;49.088;11.886;2023-02-15T20:46:49;44.92;;;25.20;;
27424;SDS011;15244;49.088;11.886;2023-02-15T20:51:53;48.88;;;25.52;;
27424;SDS011;15244;49.088;11.886;2023-02-15T20:56:56;42.40;;;24.15;;
27424;SDS011;15244;49.088;11.886;2023-02-15T21:01:59;45.03;;;23.48;;
27424;SDS011;15244;49.088;11.886;2023-02-15T21:07:03;52.60;;;25.70;;
27424;SDS011;15244;49.088;11.886;2023-02-15T21:12:04;45.70;;;25.88;;
27424;SDS011;15244;49.088;11.886;2023-02-15T21:17:09;43.40;;;24.10;;
27424;SDS011;15244;49.088;11.886;2023-02-15T21:22:12;50.65;;;25.23;;
27424;SDS011;15244;49.088;11.886;2023-02-15T21:27:16;46.75;;;26.15;;
27424;SDS011;15244;49.088;11.886;2023-02-15T21:32:19;59.85;;;27.92;;
27424;SDS011;15244;49.088;11.886;2023-02-15T21:37:26;52.58;;;26.98;;
27424;SDS011;15244;49.088;11.886;2023-02-15T21:42:31;63.20;;;28.00;;
27424;SDS011;15244;49.088;11.886;2023-02-15T21:47:52;58.53;;;36.05;;
27424;SDS011;15244;49.088;11.886;2023-02-15T21:52:53;58.08;;;31.05;;
27424;SDS011;15244;49.088;11.886;2023-02-15T21:57:55;63.88;;;29.05;;
27424;SDS011;15244;49.088;11.886;2023-02-15T22:02:57;52.78;;;25.45;;
27424;SDS011;15244;49.088;11.886;2023-02-15T22:08:01;47.70;;;25.98;;
27424;SDS011;15244;49.088;11.886;2023-02-15T22:13:02;48.80;;;25.67;;
27424;SDS011;15244;49.088;11.886;2023-02-15T22:18:04;51.05;;;26.33;;
27424;SDS011;15244;49.088;11.886;2023-02-15T22:23:06;53.10;;;27.63;;
27424;SDS011;15244;49.088;11.886;2023-02-15T22:28:11;49.50;;;26.88;;
27424;SDS011;15244;49.088;11.886;2023-02-15T22:33:21;46.00;;;24.53;;
27424;SDS011;15244;49.088;11.886;2023-02-15T22:38:44;48.45;;;26.77;;
27424;SDS011;15244;49.088;11.886;2023-02-15T22:43:45;55.90;;;28.27;;
27424;SDS011;15244;49.088;11.886;2023-02-15T22:48:48;48.30;;;27.55;;
27424;SDS011;15244;49.088;11.886;2023-02-15T22:53:50;50.28;;;26.35;;
27424;SDS011;15244;49.088;11.886;2023-02-15T22:58:54;57.63;;;26.98;;
27424;SDS011;15244;49.088;11.886;2023-02-15T23:04:01;53.35;;;27.30;;
27424;SDS011;15244;49.088;11.886;2023-02-15T23:09:04;49.75;;;25.63;;
27424;SDS011;15244;49.088;11.886;2023-02-15T23:14:09;51.53;;;26.67;;
27424;SDS011;15244;49.088;11.886;2023-02-15T23:19:25;52.10;;;25.58;;
27424;SDS011;15244;49.088;11.886;2023-02-15T23:24:27;40.60;;;22.40;;
27424;SDS011;15244;49.088;11.886;2023-02-15T23:29:31;44.00;;;24.48;;
27424;SDS011;15244;49.088;11.886;2023-02-15T23:34:32;45.53;;;24.45;;
27424;SDS011;15244;49.088;11.886;2023-02-15T23:39:34;45.80;;;24.58;;
27424;SDS011;15244;49.088;11.886;2023-02-15T23:44:54;44.53;;;24.80;;
27424;SDS011;15244;49.088;11.886;2023-02-15T23:49:56;51.05;;;25.55;;
27424;SDS011;15244;49.088;11.886;2023-02-15T23:54:58;49.17;;;25.30;;
27424;SDS011;15244;49.088;11.886;2023-02-15T23:59:59;56.08;;;27.90;;
